sensor_id;sensor_type;location;lat;lon;timestamp;pressure;altitude;pressure_sealevel;temperature;humidity
11395;BME280;5753;54.402;10.220;2022-07-09T00:01:01;102522.97;;;26.68;40.06
11395;BME280;5753;54.402;10.220;2022-07-09T00:03:27;102526.97;;;26.09;41.85
11395;BME280;5753;54.402;10.220;2022-07-09T00:05:53;102511.91;;;26.52;40.92
11395;BME280;5753;54.402;10.220;2022-07-09T00:08:19;102508.81;;;26.32;41.46
11395;BME280;5753;54.402;10.220;2022-07-09T00:10:46;102515.13;;;25.40;43.01
11395;BME280;5753;54.402;10.220;2022-07-09T00:13:12;102513.59;;;26.55;40.64
11395;BME280;5753;54.402;10.220;2022-07-09T00:15:38;102518.75;;;26.96;39.90
11395;BME280;5753;54.402;10.220;2022-07-09T00:18:04;102519.56;;;26.63;40.49
11395;BME280;5753;54.402;10.220;2022-07-09T00:20:30;102494.63;;;27.72;38.65
11395;BME280;5753;54.402;10.220;2022-07-09T00:22:56;102503.94;;;26.54;40.95
11395;BME280;5753;54.402;10.220;2022-07-09T00:25:22;102508.44;;;25.68;42.07
11395;BME280;5753;54.402;10.220;2022-07-09T00:27:48;102508.41;;;25.24;43.20
11395;BME280;5753;54.402;10.220;2022-07-09T00:30:14;102501.31;;;26.14;41.68
11395;BME280;5753;54.402;10.220;2022-07-09T00:32:40;102496.66;;;25.85;42.37
11395;BME280;5753;54.402;10.220;2022-07-09T00:35:07;102502.25;;;26.11;41.75
11395;BME280;5753;54.402;10.220;2022-07-09T00:37:33;102494.94;;;25.82;42.46
11395;BME280;5753;54.402;10.220;2022-07-09T00:39:59;102494.16;;;26.57;40.74
11395;BME280;5753;54.402;10.220;2022-07-09T00:42:25;102488.75;;;26.94;39.91
11395;BME280;5753;54.402;10.220;2022-07-09T00:44:51;102480.31;;;26.80;40.31
11395;BME280;5753;54.402;10.220;2022-07-09T00:47:17;102490.03;;;25.19;43.61
11395;BME280;5753;54.402;10.220;2022-07-09T00:49:44;102483.22;;;26.32;41.72
11395;BME280;5753;54.402;10.220;2022-07-09T00:52:13;102487.34;;;26.81;40.69
11395;BME280;5753;54.402;10.220;2022-07-09T00:54:40;102493.59;;;26.79;40.69
11395;BME280;5753;54.402;10.220;2022-07-09T00:57:09;102482.16;;;27.43;39.48
11395;BME280;5753;54.402;10.220;2022-07-09T00:59:36;102476.34;;;27.00;40.25
11395;BME280;5753;54.402;10.220;2022-07-09T01:02:04;102478.66;;;26.76;40.24
11395;BME280;5753;54.402;10.220;2022-07-09T01:04:32;102476.44;;;24.90;44.41
11395;BME280;5753;54.402;10.220;2022-07-09T01:06:58;102478.69;;;25.14;44.15
11395;BME280;5753;54.402;10.220;2022-07-09T01:09:25;102468.94;;;24.05;45.96
11395;BME280;5753;54.402;10.220;2022-07-09T01:11:52;102462.13;;;25.49;43.39
11395;BME280;5753;54.402;10.220;2022-07-09T01:14:18;102458.16;;;24.24;46.42
11395;BME280;5753;54.402;10.220;2022-07-09T01:16:44;102464.06;;;24.93;44.51
11395;BME280;5753;54.402;10.220;2022-07-09T01:19:10;102463.13;;;24.96;44.72
11395;BME280;5753;54.402;10.220;2022-07-09T01:21:36;102459.19;;;23.44;48.13
11395;BME280;5753;54.402;10.220;2022-07-09T01:24:03;102453.09;;;24.67;45.69
11395;BME280;5753;54.402;10.220;2022-07-09T01:26:29;102454.47;;;24.89;45.52
11395;BME280;5753;54.402;10.220;2022-07-09T01:28:55;102449.88;;;23.90;47.28
11395;BME280;5753;54.402;10.220;2022-07-09T01:31:22;102449.31;;;25.31;44.73
11395;BME280;5753;54.402;10.220;2022-07-09T01:33:48;102440.69;;;23.49;48.79
11395;BME280;5753;54.402;10.220;2022-07-09T01:36:14;102448.78;;;24.03;47.86
11395;BME280;5753;54.402;10.220;2022-07-09T01:38:40;102455.47;;;22.82;50.96
11395;BME280;5753;54.402;10.220;2022-07-09T01:41:06;102451.50;;;23.28;49.72
11395;BME280;5753;54.402;10.220;2022-07-09T01:43:32;102447.63;;;22.70;51.68
11395;BME280;5753;54.402;10.220;2022-07-09T01:45:59;102434.56;;;24.16;48.64
11395;BME280;5753;54.402;10.220;2022-07-09T01:48:27;102439.06;;;23.39;50.83
11395;BME280;5753;54.402;10.220;2022-07-09T01:50:53;102444.03;;;21.40;56.62
11395;BME280;5753;54.402;10.220;2022-07-09T01:53:20;102441.16;;;23.84;50.32
11395;BME280;5753;54.402;10.220;2022-07-09T01:55:46;102435.91;;;21.94;56.89
11395;BME280;5753;54.402;10.220;2022-07-09T01:58:12;102435.09;;;21.80;59.42
11395;BME280;5753;54.402;10.220;2022-07-09T02:00:40;102423.88;;;24.28;51.33
11395;BME280;5753;54.402;10.220;2022-07-09T02:03:06;102419.50;;;24.27;50.74
11395;BME280;5753;54.402;10.220;2022-07-09T02:05:33;102417.22;;;23.32;53.82
11395;BME280;5753;54.402;10.220;2022-07-09T02:07:59;102414.28;;;22.81;55.55
11395;BME280;5753;54.402;10.220;2022-07-09T02:10:25;102408.97;;;23.63;54.68
11395;BME280;5753;54.402;10.220;2022-07-09T02:12:51;102411.91;;;24.03;53.50
11395;BME280;5753;54.402;10.220;2022-07-09T02:15:18;102391.41;;;23.66;54.67
11395;BME280;5753;54.402;10.220;2022-07-09T02:17:45;102403.22;;;25.02;50.34
11395;BME280;5753;54.402;10.220;2022-07-09T02:20:11;102410.78;;;22.81;57.84
11395;BME280;5753;54.402;10.220;2022-07-09T02:22:37;102404.00;;;24.03;54.50
11395;BME280;5753;54.402;10.220;2022-07-09T02:25:05;102412.41;;;21.64;64.29
11395;BME280;5753;54.402;10.220;2022-07-09T02:27:31;102398.66;;;23.43;58.58
11395;BME280;5753;54.402;10.220;2022-07-09T02:29:57;102401.53;;;22.34;62.11
11395;BME280;5753;54.402;10.220;2022-07-09T02:32:24;102401.13;;;22.83;60.45
11395;BME280;5753;54.402;10.220;2022-07-09T02:34:50;102396.44;;;22.07;65.08
11395;BME280;5753;54.402;10.220;2022-07-09T02:37:16;102393.72;;;23.18;59.13
11395;BME280;5753;54.402;10.220;2022-07-09T02:39:42;102391.78;;;23.34;60.73
11395;BME280;5753;54.402;10.220;2022-07-09T02:42:08;102392.84;;;23.16;62.35
11395;BME280;5753;54.402;10.220;2022-07-09T02:44:34;102377.38;;;23.61;59.94
11395;BME280;5753;54.402;10.220;2022-07-09T02:47:00;102383.88;;;24.54;56.33
11395;BME280;5753;54.402;10.220;2022-07-09T02:49:26;102377.88;;;23.89;58.20
11395;BME280;5753;54.402;10.220;2022-07-09T02:51:52;102370.72;;;23.99;58.27
11395;BME280;5753;54.402;10.220;2022-07-09T02:54:20;102372.59;;;23.24;60.32
11395;BME280;5753;54.402;10.220;2022-07-09T02:56:46;102380.38;;;22.46;64.12
11395;BME280;5753;54.402;10.220;2022-07-09T02:59:12;102378.72;;;24.48;56.57
11395;BME280;5753;54.402;10.220;2022-07-09T03:01:39;102365.38;;;24.56;55.37
11395;BME280;5753;54.402;10.220;2022-07-09T03:04:05;102371.66;;;25.41;52.60
11395;BME280;5753;54.402;10.220;2022-07-09T03:06:31;102358.94;;;23.63;61.23
11395;BME280;5753;54.402;10.220;2022-07-09T03:08:57;102359.41;;;24.46;56.65
11395;BME280;5753;54.402;10.220;2022-07-09T03:11:23;102359.88;;;24.18;59.06
11395;BME280;5753;54.402;10.220;2022-07-09T03:13:49;102353.56;;;23.72;60.48
11395;BME280;5753;54.402;10.220;2022-07-09T03:16:15;102348.28;;;25.24;54.74
11395;BME280;5753;54.402;10.220;2022-07-09T03:18:42;102341.09;;;25.71;52.82
11395;BME280;5753;54.402;10.220;2022-07-09T03:21:08;102337.19;;;25.47;52.55
11395;BME280;5753;54.402;10.220;2022-07-09T03:23:35;102334.72;;;24.96;54.64
11395;BME280;5753;54.402;10.220;2022-07-09T03:26:01;102329.91;;;23.70;60.80
11395;BME280;5753;54.402;10.220;2022-07-09T03:28:27;102323.06;;;24.14;60.22
11395;BME280;5753;54.402;10.220;2022-07-09T03:30:53;102324.75;;;24.69;56.88
11395;BME280;5753;54.402;10.220;2022-07-09T03:33:19;102318.59;;;25.13;54.43
11395;BME280;5753;54.402;10.220;2022-07-09T03:35:45;102317.56;;;24.26;57.37
11395;BME280;5753;54.402;10.220;2022-07-09T03:38:11;102320.09;;;23.14;63.07
11395;BME280;5753;54.402;10.220;2022-07-09T03:40:37;102318.66;;;23.58;62.21
11395;BME280;5753;54.402;10.220;2022-07-09T03:43:03;102324.19;;;24.98;55.15
11395;BME280;5753;54.402;10.220;2022-07-09T03:45:29;102326.75;;;23.41;63.68
11395;BME280;5753;54.402;10.220;2022-07-09T03:47:55;102321.34;;;24.10;60.64
11395;BME280;5753;54.402;10.220;2022-07-09T03:50:21;102322.72;;;24.82;58.32
11395;BME280;5753;54.402;10.220;2022-07-09T03:52:48;102319.59;;;23.52;61.27
11395;BME280;5753;54.402;10.220;2022-07-09T03:55:14;102339.97;;;22.58;69.04
11395;BME280;5753;54.402;10.220;2022-07-09T03:57:40;102338.16;;;22.65;69.18
11395;BME280;5753;54.402;10.220;2022-07-09T04:00:07;102330.78;;;23.00;66.85
11395;BME280;5753;54.402;10.220;2022-07-09T04:02:33;102323.63;;;23.11;66.92
11395;BME280;5753;54.402;10.220;2022-07-09T04:04:59;102319.81;;;23.37;66.42
11395;BME280;5753;54.402;10.220;2022-07-09T04:07:25;102325.25;;;22.42;71.13
11395;BME280;5753;54.402;10.220;2022-07-09T04:09:55;102315.81;;;24.76;59.52
11395;BME280;5753;54.402;10.220;2022-07-09T04:12:22;102316.31;;;26.12;53.36
11395;BME280;5753;54.402;10.220;2022-07-09T04:14:48;102315.88;;;24.73;58.27
11395;BME280;5753;54.402;10.220;2022-07-09T04:17:14;102319.81;;;23.35;66.34
11395;BME280;5753;54.402;10.220;2022-07-09T04:19:40;102320.88;;;25.30;57.84
11395;BME280;5753;54.402;10.220;2022-07-09T04:22:06;102323.41;;;23.93;62.27
11395;BME280;5753;54.402;10.220;2022-07-09T04:24:32;102317.78;;;23.54;63.82
11395;BME280;5753;54.402;10.220;2022-07-09T04:26:58;102328.06;;;22.20;74.17
11395;BME280;5753;54.402;10.220;2022-07-09T04:29:25;102315.03;;;23.68;66.82
11395;BME280;5753;54.402;10.220;2022-07-09T04:31:51;102319.78;;;22.63;70.19
11395;BME280;5753;54.402;10.220;2022-07-09T04:34:17;102316.69;;;23.06;70.01
11395;BME280;5753;54.402;10.220;2022-07-09T04:36:43;102308.41;;;24.93;59.16
11395;BME280;5753;54.402;10.220;2022-07-09T04:39:09;102311.66;;;22.89;69.41
11395;BME280;5753;54.402;10.220;2022-07-09T04:41:36;102315.91;;;22.99;68.32
11395;BME280;5753;54.402;10.220;2022-07-09T04:44:03;102314.25;;;25.49;57.84
11395;BME280;5753;54.402;10.220;2022-07-09T04:46:29;102319.13;;;24.39;59.80
11395;BME280;5753;54.402;10.220;2022-07-09T04:48:56;102316.19;;;24.55;60.95
11395;BME280;5753;54.402;10.220;2022-07-09T04:51:22;102322.09;;;24.20;62.98
11395;BME280;5753;54.402;10.220;2022-07-09T04:53:49;102316.63;;;22.27;72.26
11395;BME280;5753;54.402;10.220;2022-07-09T04:56:15;102320.34;;;23.62;65.73
11395;BME280;5753;54.402;10.220;2022-07-09T04:58:41;102319.25;;;24.32;63.62
11395;BME280;5753;54.402;10.220;2022-07-09T05:01:20;102301.56;;;25.28;56.15
11395;BME280;5753;54.402;10.220;2022-07-09T05:03:47;102306.47;;;24.60;58.17
11395;BME280;5753;54.402;10.220;2022-07-09T05:06:15;102302.00;;;24.11;61.44
11395;BME280;5753;54.402;10.220;2022-07-09T05:08:42;102300.88;;;25.20;57.77
11395;BME280;5753;54.402;10.220;2022-07-09T05:11:09;102294.53;;;25.65;55.92
11395;BME280;5753;54.402;10.220;2022-07-09T05:13:36;102292.19;;;25.15;57.27
11395;BME280;5753;54.402;10.220;2022-07-09T05:16:03;102297.19;;;23.23;67.24
11395;BME280;5753;54.402;10.220;2022-07-09T05:18:30;102292.09;;;24.28;64.98
11395;BME280;5753;54.402;10.220;2022-07-09T05:20:56;102303.34;;;25.67;56.62
11395;BME280;5753;54.402;10.220;2022-07-09T05:23:22;102289.00;;;26.46;52.58
11395;BME280;5753;54.402;10.220;2022-07-09T05:25:49;102306.53;;;27.71;49.26
11395;BME280;5753;54.402;10.220;2022-07-09T05:28:15;102313.25;;;28.34;47.70
11395;BME280;5753;54.402;10.220;2022-07-09T05:30:41;102318.94;;;27.97;48.40
11395;BME280;5753;54.402;10.220;2022-07-09T05:33:08;102307.78;;;26.69;50.96
11395;BME280;5753;54.402;10.220;2022-07-09T05:35:34;102308.88;;;28.33;46.78
11395;BME280;5753;54.402;10.220;2022-07-09T05:38:00;102307.88;;;26.66;50.98
11395;BME280;5753;54.402;10.220;2022-07-09T05:40:27;102309.03;;;27.47;49.38
11395;BME280;5753;54.402;10.220;2022-07-09T05:42:53;102302.25;;;27.37;48.84
11395;BME280;5753;54.402;10.220;2022-07-09T05:45:19;102311.97;;;27.09;49.75
11395;BME280;5753;54.402;10.220;2022-07-09T05:47:45;102298.03;;;28.40;46.19
11395;BME280;5753;54.402;10.220;2022-07-09T05:50:11;102298.44;;;27.47;48.24
11395;BME280;5753;54.402;10.220;2022-07-09T05:52:37;102311.50;;;26.62;49.29
11395;BME280;5753;54.402;10.220;2022-07-09T05:55:04;102299.81;;;27.31;48.11
11395;BME280;5753;54.402;10.220;2022-07-09T05:57:30;102298.63;;;27.12;48.55
11395;BME280;5753;54.402;10.220;2022-07-09T05:59:56;102295.09;;;28.48;45.19
11395;BME280;5753;54.402;10.220;2022-07-09T06:02:22;102299.44;;;28.50;44.14
11395;BME280;5753;54.402;10.220;2022-07-09T06:04:49;102301.88;;;26.90;48.03
11395;BME280;5753;54.402;10.220;2022-07-09T06:07:15;102304.38;;;27.26;47.42
11395;BME280;5753;54.402;10.220;2022-07-09T06:09:41;102294.19;;;28.49;44.71
11395;BME280;5753;54.402;10.220;2022-07-09T06:12:08;102296.94;;;27.67;45.90
11395;BME280;5753;54.402;10.220;2022-07-09T06:14:34;102293.28;;;27.71;46.28
11395;BME280;5753;54.402;10.220;2022-07-09T06:17:00;102284.53;;;27.69;46.57
11395;BME280;5753;54.402;10.220;2022-07-09T06:19:36;102278.28;;;27.14;47.23
11395;BME280;5753;54.402;10.220;2022-07-09T06:22:03;102283.56;;;28.97;42.96
11395;BME280;5753;54.402;10.220;2022-07-09T06:24:29;102284.97;;;28.59;44.25
11395;BME280;5753;54.402;10.220;2022-07-09T06:26:56;102283.06;;;28.38;44.20
11395;BME280;5753;54.402;10.220;2022-07-09T06:29:23;102285.94;;;28.05;44.57
11395;BME280;5753;54.402;10.220;2022-07-09T06:31:49;102288.09;;;27.94;45.76
11395;BME280;5753;54.402;10.220;2022-07-09T06:34:15;102283.81;;;28.66;44.08
11395;BME280;5753;54.402;10.220;2022-07-09T06:36:41;102284.59;;;28.45;44.43
11395;BME280;5753;54.402;10.220;2022-07-09T06:39:10;102283.22;;;29.28;42.94
11395;BME280;5753;54.402;10.220;2022-07-09T06:42:02;102276.94;;;28.61;43.95
11395;BME280;5753;54.402;10.220;2022-07-09T06:44:28;102280.03;;;30.07;41.42
11395;BME280;5753;54.402;10.220;2022-07-09T06:46:54;102280.22;;;28.67;44.08
11395;BME280;5753;54.402;10.220;2022-07-09T06:49:21;102278.84;;;29.51;42.37
11395;BME280;5753;54.402;10.220;2022-07-09T06:51:47;102280.75;;;29.47;41.50
11395;BME280;5753;54.402;10.220;2022-07-09T06:54:13;102274.44;;;30.14;40.31
11395;BME280;5753;54.402;10.220;2022-07-09T06:56:39;102282.81;;;30.45;39.24
11395;BME280;5753;54.402;10.220;2022-07-09T06:59:05;102283.88;;;29.35;40.65
11395;BME280;5753;54.402;10.220;2022-07-09T07:01:31;102288.53;;;28.81;40.99
11395;BME280;5753;54.402;10.220;2022-07-09T07:03:57;102285.31;;;28.98;40.78
11395;BME280;5753;54.402;10.220;2022-07-09T07:06:23;102292.06;;;27.81;42.28
11395;BME280;5753;54.402;10.220;2022-07-09T07:08:49;102285.41;;;26.48;44.52
11395;BME280;5753;54.402;10.220;2022-07-09T07:11:15;102280.34;;;27.32;43.47
11395;BME280;5753;54.402;10.220;2022-07-09T07:13:41;102276.81;;;27.61;43.05
11395;BME280;5753;54.402;10.220;2022-07-09T07:16:08;102284.38;;;29.88;40.08
11395;BME280;5753;54.402;10.220;2022-07-09T07:18:34;102275.59;;;29.42;39.75
11395;BME280;5753;54.402;10.220;2022-07-09T07:21:00;102282.25;;;28.86;41.12
11395;BME280;5753;54.402;10.220;2022-07-09T07:23:26;102276.53;;;27.97;41.68
11395;BME280;5753;54.402;10.220;2022-07-09T07:25:52;102277.28;;;29.00;40.62
11395;BME280;5753;54.402;10.220;2022-07-09T07:28:18;102282.22;;;29.09;40.94
11395;BME280;5753;54.402;10.220;2022-07-09T07:30:44;102277.88;;;30.56;38.59
11395;BME280;5753;54.402;10.220;2022-07-09T07:33:10;102272.47;;;29.31;38.42
11395;BME280;5753;54.402;10.220;2022-07-09T07:35:36;102265.78;;;30.49;37.23
11395;BME280;5753;54.402;10.220;2022-07-09T07:38:03;102261.81;;;30.97;36.32
11395;BME280;5753;54.402;10.220;2022-07-09T07:40:29;102266.03;;;28.45;39.79
11395;BME280;5753;54.402;10.220;2022-07-09T07:42:55;102274.03;;;30.23;37.13
11395;BME280;5753;54.402;10.220;2022-07-09T07:45:21;102267.78;;;30.24;36.32
11395;BME280;5753;54.402;10.220;2022-07-09T07:47:47;102280.94;;;29.19;39.35
11395;BME280;5753;54.402;10.220;2022-07-09T07:50:13;102279.59;;;28.86;39.37
11395;BME280;5753;54.402;10.220;2022-07-09T07:52:39;102277.84;;;29.53;38.03
11395;BME280;5753;54.402;10.220;2022-07-09T07:55:05;102269.56;;;29.61;37.96
11395;BME280;5753;54.402;10.220;2022-07-09T07:57:32;102273.00;;;28.47;39.16
11395;BME280;5753;54.402;10.220;2022-07-09T07:59:58;102273.34;;;29.97;37.14
11395;BME280;5753;54.402;10.220;2022-07-09T08:02:24;102268.50;;;28.98;38.75
11395;BME280;5753;54.402;10.220;2022-07-09T08:04:50;102273.59;;;30.73;35.94
11395;BME280;5753;54.402;10.220;2022-07-09T08:07:16;102267.09;;;30.80;36.16
11395;BME280;5753;54.402;10.220;2022-07-09T08:09:42;102261.38;;;30.48;36.22
11395;BME280;5753;54.402;10.220;2022-07-09T08:12:09;102267.16;;;29.31;37.72
11395;BME280;5753;54.402;10.220;2022-07-09T08:14:35;102268.16;;;28.82;38.55
11395;BME280;5753;54.402;10.220;2022-07-09T08:17:01;102262.31;;;29.86;36.42
11395;BME280;5753;54.402;10.220;2022-07-09T08:19:27;102263.56;;;28.89;38.87
11395;BME280;5753;54.402;10.220;2022-07-09T08:21:53;102269.31;;;29.00;38.00
11395;BME280;5753;54.402;10.220;2022-07-09T08:24:19;102276.38;;;27.75;39.87
11395;BME280;5753;54.402;10.220;2022-07-09T08:26:45;102274.06;;;28.67;38.46
11395;BME280;5753;54.402;10.220;2022-07-09T08:29:11;102265.47;;;31.13;34.47
11395;BME280;5753;54.402;10.220;2022-07-09T08:31:37;102271.31;;;31.21;34.60
11395;BME280;5753;54.402;10.220;2022-07-09T08:34:03;102271.50;;;30.60;35.79
11395;BME280;5753;54.402;10.220;2022-07-09T08:36:29;102273.47;;;30.55;34.94
11395;BME280;5753;54.402;10.220;2022-07-09T08:38:56;102272.50;;;29.75;36.80
11395;BME280;5753;54.402;10.220;2022-07-09T08:41:23;102261.38;;;31.06;34.86
11395;BME280;5753;54.402;10.220;2022-07-09T08:43:53;102267.00;;;29.36;37.13
11395;BME280;5753;54.402;10.220;2022-07-09T08:46:19;102259.03;;;29.36;37.75
11395;BME280;5753;54.402;10.220;2022-07-09T08:48:46;102260.78;;;29.59;35.67
11395;BME280;5753;54.402;10.220;2022-07-09T08:51:13;102264.06;;;30.28;35.01
11395;BME280;5753;54.402;10.220;2022-07-09T08:53:43;102268.56;;;30.26;34.08
11395;BME280;5753;54.402;10.220;2022-07-09T08:56:10;102269.03;;;31.33;33.07
11395;BME280;5753;54.402;10.220;2022-07-09T08:58:37;102274.69;;;30.07;34.30
11395;BME280;5753;54.402;10.220;2022-07-09T09:01:04;102276.72;;;29.37;35.43
11395;BME280;5753;54.402;10.220;2022-07-09T09:03:31;102254.84;;;28.83;36.18
11395;BME280;5753;54.402;10.220;2022-07-09T09:06:08;102271.09;;;29.66;36.25
11395;BME280;5753;54.402;10.220;2022-07-09T09:08:41;102271.59;;;28.37;37.82
11395;BME280;5753;54.402;10.220;2022-07-09T09:11:13;102275.91;;;28.90;38.00
11395;BME280;5753;54.402;10.220;2022-07-09T09:13:44;102260.09;;;30.77;34.96
11395;BME280;5753;54.402;10.220;2022-07-09T09:16:11;102259.81;;;31.02;34.01
11395;BME280;5753;54.402;10.220;2022-07-09T09:18:48;102264.19;;;31.03;33.52
11395;BME280;5753;54.402;10.220;2022-07-09T09:21:16;102267.09;;;29.11;35.34
11395;BME280;5753;54.402;10.220;2022-07-09T09:23:46;102264.31;;;30.01;34.28
11395;BME280;5753;54.402;10.220;2022-07-09T09:26:17;102269.91;;;30.16;35.22
11395;BME280;5753;54.402;10.220;2022-07-09T09:28:51;102273.22;;;30.21;34.89
11395;BME280;5753;54.402;10.220;2022-07-09T09:33:58;102262.47;;;30.44;33.21
11395;BME280;5753;54.402;10.220;2022-07-09T09:36:46;102271.66;;;31.51;32.41
11395;BME280;5753;54.402;10.220;2022-07-09T09:39:21;102260.75;;;31.39;31.76
11395;BME280;5753;54.402;10.220;2022-07-09T09:41:48;102264.28;;;33.09;30.00
11395;BME280;5753;54.402;10.220;2022-07-09T09:44:17;102265.69;;;32.34;30.10
11395;BME280;5753;54.402;10.220;2022-07-09T09:46:45;102266.09;;;31.75;31.57
11395;BME280;5753;54.402;10.220;2022-07-09T09:49:13;102272.44;;;31.72;31.46
11395;BME280;5753;54.402;10.220;2022-07-09T09:52:07;102276.00;;;29.55;33.95
11395;BME280;5753;54.402;10.220;2022-07-09T09:54:38;102268.84;;;31.73;32.13
11395;BME280;5753;54.402;10.220;2022-07-09T09:57:12;102259.78;;;31.40;31.82
11395;BME280;5753;54.402;10.220;2022-07-09T09:59:43;102263.69;;;29.53;31.84
11395;BME280;5753;54.402;10.220;2022-07-09T10:02:13;102250.94;;;32.93;29.11
11395;BME280;5753;54.402;10.220;2022-07-09T10:04:41;102264.91;;;31.80;29.53
11395;BME280;5753;54.402;10.220;2022-07-09T10:07:11;102260.16;;;32.88;28.50
11395;BME280;5753;54.402;10.220;2022-07-09T10:09:39;102269.31;;;31.81;29.64
11395;BME280;5753;54.402;10.220;2022-07-09T10:12:06;102273.72;;;28.52;35.53
11395;BME280;5753;54.402;10.220;2022-07-09T10:14:36;102277.22;;;29.47;34.77
11395;BME280;5753;54.402;10.220;2022-07-09T10:17:13;102288.47;;;29.53;33.83
11395;BME280;5753;54.402;10.220;2022-07-09T10:19:54;102267.09;;;31.72;30.45
11395;BME280;5753;54.402;10.220;2022-07-09T10:22:21;102272.19;;;30.04;32.57
11395;BME280;5753;54.402;10.220;2022-07-09T10:24:51;102266.22;;;29.56;33.19
11395;BME280;5753;54.402;10.220;2022-07-09T10:27:18;102268.69;;;30.63;30.89
11395;BME280;5753;54.402;10.220;2022-07-09T10:29:55;102259.97;;;32.58;29.52
11395;BME280;5753;54.402;10.220;2022-07-09T10:32:31;102261.94;;;31.13;30.04
11395;BME280;5753;54.402;10.220;2022-07-09T10:35:05;102260.22;;;32.86;28.84
11395;BME280;5753;54.402;10.220;2022-07-09T10:37:32;102261.69;;;31.19;29.22
11395;BME280;5753;54.402;10.220;2022-07-09T10:40:15;102265.84;;;31.79;28.33
11395;BME280;5753;54.402;10.220;2022-07-09T10:42:44;102262.41;;;31.94;28.74
11395;BME280;5753;54.402;10.220;2022-07-09T10:45:24;102267.56;;;32.32;28.26
11395;BME280;5753;54.402;10.220;2022-07-09T10:47:53;102267.47;;;32.16;27.97
11395;BME280;5753;54.402;10.220;2022-07-09T10:50:20;102264.81;;;33.15;26.81
11395;BME280;5753;54.402;10.220;2022-07-09T10:52:46;102270.69;;;32.06;28.32
11395;BME280;5753;54.402;10.220;2022-07-09T10:55:16;102264.38;;;31.55;30.03
11395;BME280;5753;54.402;10.220;2022-07-09T10:57:43;102266.91;;;31.22;30.03
11395;BME280;5753;54.402;10.220;2022-07-09T11:00:09;102260.25;;;31.30;29.31
11395;BME280;5753;54.402;10.220;2022-07-09T11:02:49;102258.84;;;31.41;29.27
11395;BME280;5753;54.402;10.220;2022-07-09T11:05:15;102253.75;;;32.41;27.50
11395;BME280;5753;54.402;10.220;2022-07-09T11:07:42;102260.66;;;31.93;27.78
11395;BME280;5753;54.402;10.220;2022-07-09T11:10:08;102257.88;;;30.87;28.82
11395;BME280;5753;54.402;10.220;2022-07-09T11:12:47;102254.31;;;31.05;28.78
11395;BME280;5753;54.402;10.220;2022-07-09T11:15:21;102247.41;;;31.01;28.36
11395;BME280;5753;54.402;10.220;2022-07-09T11:18:03;102247.50;;;31.54;28.49
11395;BME280;5753;54.402;10.220;2022-07-09T11:20:31;102245.13;;;30.75;28.87
11395;BME280;5753;54.402;10.220;2022-07-09T11:22:58;102247.22;;;32.80;26.31
11395;BME280;5753;54.402;10.220;2022-07-09T11:25:27;102231.84;;;33.92;25.30
11395;BME280;5753;54.402;10.220;2022-07-09T11:27:54;102243.13;;;33.52;24.50
11395;BME280;5753;54.402;10.220;2022-07-09T11:30:21;102234.91;;;32.10;26.04
11395;BME280;5753;54.402;10.220;2022-07-09T11:32:48;102241.72;;;33.14;26.29
11395;BME280;5753;54.402;10.220;2022-07-09T11:35:26;102232.38;;;31.74;27.50
11395;BME280;5753;54.402;10.220;2022-07-09T11:37:52;102236.22;;;30.55;27.98
11395;BME280;5753;54.402;10.220;2022-07-09T11:40:20;102231.50;;;32.74;25.48
11395;BME280;5753;54.402;10.220;2022-07-09T11:42:47;102239.81;;;33.16;24.83
11395;BME280;5753;54.402;10.220;2022-07-09T11:45:13;102235.41;;;33.15;24.30
11395;BME280;5753;54.402;10.220;2022-07-09T11:47:40;102226.88;;;33.25;24.26
11395;BME280;5753;54.402;10.220;2022-07-09T11:50:17;102234.13;;;32.91;24.84
11395;BME280;5753;54.402;10.220;2022-07-09T11:52:51;102225.84;;;32.47;25.15
11395;BME280;5753;54.402;10.220;2022-07-09T11:55:20;102221.31;;;30.51;27.29
11395;BME280;5753;54.402;10.220;2022-07-09T11:57:57;102233.97;;;30.46;28.15
11395;BME280;5753;54.402;10.220;2022-07-09T12:00:28;102227.00;;;30.83;27.82
11395;BME280;5753;54.402;10.220;2022-07-09T12:02:56;102234.22;;;32.56;26.25
11395;BME280;5753;54.402;10.220;2022-07-09T12:05:30;102234.28;;;33.20;25.26
11395;BME280;5753;54.402;10.220;2022-07-09T12:07:58;102229.13;;;33.16;25.15
11395;BME280;5753;54.402;10.220;2022-07-09T12:10:27;102245.59;;;34.59;23.09
11395;BME280;5753;54.402;10.220;2022-07-09T12:12:53;102230.44;;;35.00;22.42
11395;BME280;5753;54.402;10.220;2022-07-09T12:15:19;102232.38;;;34.70;23.53
11395;BME280;5753;54.402;10.220;2022-07-09T12:17:45;102245.59;;;32.60;25.18
11395;BME280;5753;54.402;10.220;2022-07-09T12:20:16;102250.69;;;31.97;25.35
11395;BME280;5753;54.402;10.220;2022-07-09T12:22:42;102252.22;;;33.17;23.05
11395;BME280;5753;54.402;10.220;2022-07-09T12:25:08;102239.97;;;33.45;23.36
11395;BME280;5753;54.402;10.220;2022-07-09T12:27:34;102241.47;;;33.35;23.40
11395;BME280;5753;54.402;10.220;2022-07-09T12:30:00;102240.69;;;34.08;22.10
11395;BME280;5753;54.402;10.220;2022-07-09T12:32:26;102235.72;;;32.29;24.60
11395;BME280;5753;54.402;10.220;2022-07-09T12:34:53;102229.03;;;32.86;24.54
11395;BME280;5753;54.402;10.220;2022-07-09T12:37:20;102235.09;;;35.38;23.13
11395;BME280;5753;54.402;10.220;2022-07-09T12:39:46;102237.13;;;35.08;22.32
11395;BME280;5753;54.402;10.220;2022-07-09T12:42:12;102227.75;;;32.78;24.32
11395;BME280;5753;54.402;10.220;2022-07-09T12:44:39;102220.34;;;30.73;26.59
11395;BME280;5753;54.402;10.220;2022-07-09T12:47:05;102221.56;;;31.03;26.86
11395;BME280;5753;54.402;10.220;2022-07-09T12:49:31;102236.75;;;31.92;25.80
11395;BME280;5753;54.402;10.220;2022-07-09T12:51:57;102250.69;;;29.67;30.10
11395;BME280;5753;54.402;10.220;2022-07-09T12:54:23;102252.97;;;27.33;34.60